Time,TemperatureF,DewpointF,PressureIn,WindDirection,WindDirectionDegrees,WindSpeedMPH,WindSpeedGustMPH,Humidity,HourlyPrecipIn,Conditions,Clouds,dailyrainin,SoftwareType,DateUTC
2013-01-07 00:00:00,47.0,47.0,30.14,NNW,330,11.0,13.0,98,-99.99,,,-99.99,,2013-01-07 05:00:00,
2013-01-07 00:22:00,47.0,47.0,30.14,NNW,330,11.0,13.0,98,-99.99,,,-99.99,,2013-01-07 05:22:00,
2013-01-07 00:32:00,47.0,47.0,30.14,NNW,330,11.0,13.0,98,-99.99,,,-99.99,,2013-01-07 05:32:00,
2013-01-07 00:42:00,47.0,47.0,30.14,NNW,330,11.0,13.0,98,-99.99,,,-99.99,,2013-01-07 05:42:00,
2013-01-07 00:52:00,47.0,47.0,30.14,NNW,330,11.0,13.0,98,-99.99,,,-99.99,,2013-01-07 05:52:00,
2013-01-07 01:00:00,47.0,46.0,30.14,NNW,330,14.0,17.0,98,-99.99,,,-99.99,,2013-01-07 06:00:00,
2013-01-07 01:22:00,47.0,46.0,30.14,NNW,330,14.0,17.0,98,-99.99,,,-99.99,,2013-01-07 06:22:00,
2013-01-07 01:32:00,47.0,46.0,30.14,NNW,330,14.0,17.0,98,-99.99,,,-99.99,,2013-01-07 06:32:00,
2013-01-07 01:42:00,47.0,46.0,30.14,NNW,330,14.0,17.0,98,-99.99,,,-99.99,,2013-01-07 06:42:00,
2013-01-07 01:52:00,47.0,46.0,30.14,NNW,330,14.0,17.0,98,-99.99,,,-99.99,,2013-01-07 06:52:00,
2013-01-07 02:00:00,46.0,45.0,30.16,NNW,330,14.0,18.0,94,-99.99,,,-99.99,,2013-01-07 07:00:00,
2013-01-07 02:22:00,46.0,45.0,30.16,NNW,330,14.0,18.0,94,-99.99,,,-99.99,,2013-01-07 07:22:00,
2013-01-07 02:32:00,46.0,45.0,30.16,NNW,330,14.0,18.0,94,-99.99,,,-99.99,,2013-01-07 07:32:00,
2013-01-07 02:42:00,46.0,45.0,30.16,NNW,330,14.0,18.0,94,-99.99,,,-99.99,,2013-01-07 07:42:00,
2013-01-07 02:52:00,46.0,45.0,30.16,NNW,330,14.0,18.0,94,-99.99,,,-99.99,,2013-01-07 07:52:00,
2013-01-07 03:00:00,46.0,42.0,30.18,NNW,340,16.0,18.0,84,-99.99,,,-99.99,,2013-01-07 08:00:00,
2013-01-07 03:22:00,46.0,42.0,30.18,NNW,340,16.0,18.0,84,-99.99,,,-99.99,,2013-01-07 08:22:00,
2013-01-07 03:32:00,46.0,42.0,30.18,NNW,340,16.0,18.0,84,-99.99,,,-99.99,,2013-01-07 08:32:00,
2013-01-07 03:42:00,46.0,42.0,30.18,NNW,340,16.0,18.0,84,-99.99,,,-99.99,,2013-01-07 08:42:00,
2013-01-07 03:52:00,46.0,42.0,30.18,NNW,340,16.0,18.0,84,-99.99,,,-99.99,,2013-01-07 08:52:00,
2013-01-07 04:00:00,45.0,38.0,30.19,North,350,13.0,15.0,76,-99.99,,,-99.99,,2013-01-07 09:00:00,
2013-01-07 04:22:00,45.0,38.0,30.19,North,350,13.0,15.0,76,-99.99,,,-99.99,,2013-01-07 09:22:00,
2013-01-07 04:32:00,45.0,38.0,30.19,North,350,13.0,15.0,76,-99.99,,,-99.99,,2013-01-07 09:32:00,
2013-01-07 04:42:00,45.0,38.0,30.19,North,350,13.0,15.0,76,-99.99,,,-99.99,,2013-01-07 09:42:00,
2013-01-07 04:52:00,45.0,38.0,30.19,North,350,13.0,15.0,76,-99.99,,,-99.99,,2013-01-07 09:52:00,
2013-01-07 05:00:00,44.0,37.0,30.22,North,350,13.0,14.0,75,-99.99,,,-99.99,,2013-01-07 10:00:00,
2013-01-07 05:22:00,44.0,37.0,30.22,North,350,13.0,14.0,75,-99.99,,,-99.99,,2013-01-07 10:22:00,
2013-01-07 05:32:00,44.0,37.0,30.22,North,350,13.0,14.0,75,-99.99,,,-99.99,,2013-01-07 10:32:00,
2013-01-07 05:42:00,44.0,37.0,30.22,North,350,13.0,14.0,75,-99.99,,,-99.99,,2013-01-07 10:42:00,
2013-01-07 05:52:00,44.0,37.0,30.22,North,350,13.0,14.0,75,-99.99,,,-99.99,,2013-01-07 10:52:00,
2013-01-07 06:00:00,44.0,37.0,30.24,North,350,11.0,14.0,77,-99.99,,,-99.99,,2013-01-07 11:00:00,
2013-01-07 06:22:00,44.0,37.0,30.24,North,350,11.0,14.0,77,-99.99,,,-99.99,,2013-01-07 11:22:00,
2013-01-07 06:32:00,44.0,37.0,30.24,North,350,11.0,14.0,77,-99.99,,,-99.99,,2013-01-07 11:32:00,
2013-01-07 06:42:00,44.0,37.0,30.24,North,350,11.0,14.0,77,-99.99,,,-99.99,,2013-01-07 11:42:00,
2013-01-07 06:52:00,44.0,37.0,30.24,North,350,11.0,14.0,77,-99.99,,,-99.99,,2013-01-07 11:52:00,
2013-01-07 07:00:00,43.0,37.0,30.27,NNW,340,11.0,14.0,78,-99.99,,,-99.99,,2013-01-07 12:00:00,
2013-01-07 07:22:00,43.0,37.0,30.27,NNW,340,11.0,14.0,78,-99.99,,,-99.99,,2013-01-07 12:22:00,
2013-01-07 07:32:00,43.0,37.0,30.27,NNW,340,11.0,14.0,78,-99.99,,,-99.99,,2013-01-07 12:32:00,
2013-01-07 07:42:00,43.0,37.0,30.27,NNW,340,11.0,14.0,78,-99.99,,,-99.99,,2013-01-07 12:42:00,
2013-01-07 07:52:00,43.0,37.0,30.27,NNW,340,11.0,14.0,78,-99.99,,,-99.99,,2013-01-07 12:52:00,
2013-01-07 08:00:00,43.0,35.0,30.31,North,350,14.0,16.0,74,-99.99,,,-99.99,,2013-01-07 13:00:00,
2013-01-07 08:22:00,43.0,35.0,30.31,North,350,14.0,16.0,74,-99.99,,,-99.99,,2013-01-07 13:22:00,
2013-01-07 08:32:00,43.0,35.0,30.31,North,350,14.0,16.0,74,-99.99,,,-99.99,,2013-01-07 13:32:00,
2013-01-07 08:42:00,43.0,35.0,30.31,North,350,14.0,16.0,74,-99.99,,,-99.99,,2013-01-07 13:42:00,
2013-01-07 08:52:00,43.0,35.0,30.31,North,350,14.0,16.0,74,-99.99,,,-99.99,,2013-01-07 13:52:00,
2013-01-07 09:00:00,44.0,36.0,30.34,North,360,15.0,16.0,72,-99.99,,,-99.99,,2013-01-07 14:00:00,
2013-01-07 09:22:00,44.0,36.0,30.34,North,360,15.0,16.0,72,-99.99,,,-99.99,,2013-01-07 14:22:00,
2013-01-07 09:32:00,44.0,36.0,30.34,North,360,15.0,16.0,72,-99.99,,,-99.99,,2013-01-07 14:32:00,
2013-01-07 09:42:00,44.0,36.0,30.34,North,360,15.0,16.0,72,-99.99,,,-99.99,,2013-01-07 14:42:00,
2013-01-07 09:53:00,44.0,36.0,30.34,North,360,15.0,16.0,72,-99.99,,,-99.99,,2013-01-07 14:53:00,
2013-01-07 10:00:00,47.0,38.0,30.38,North,10,14.0,18.0,71,-99.99,,,-99.99,,2013-01-07 15:00:00,
2013-01-07 10:22:00,47.0,38.0,30.38,North,10,14.0,18.0,71,-99.99,,,-99.99,,2013-01-07 15:22:00,
2013-01-07 10:32:00,47.0,38.0,30.38,North,10,14.0,18.0,71,-99.99,,,-99.99,,2013-01-07 15:32:00,
2013-01-07 10:42:00,47.0,38.0,30.38,North,10,14.0,18.0,71,-99.99,,,-99.99,,2013-01-07 15:42:00,
2013-01-07 10:52:00,47.0,38.0,30.38,North,10,14.0,18.0,71,-99.99,,,-99.99,,2013-01-07 15:52:00,
2013-01-07 11:00:00,49.0,37.0,30.38,NE,40,25.0,30.0,63,-99.99,,,-99.99,,2013-01-07 16:00:00,
2013-01-07 11:22:00,49.0,37.0,30.38,NE,40,25.0,30.0,63,-99.99,,,-99.99,,2013-01-07 16:22:00,
2013-01-07 11:32:00,49.0,37.0,30.38,NE,40,25.0,30.0,63,-99.99,,,-99.99,,2013-01-07 16:32:00,
2013-01-07 11:42:00,49.0,37.0,30.38,NE,40,25.0,30.0,63,-99.99,,,-99.99,,2013-01-07 16:42:00,
2013-01-07 11:52:00,49.0,37.0,30.38,NE,40,25.0,30.0,63,-99.99,,,-99.99,,2013-01-07 16:52:00,
2013-01-07 12:00:00,49.0,38.0,30.37,NNE,30,23.0,25.0,64,-99.99,,,-99.99,,2013-01-07 17:00:00,
2013-01-07 12:22:00,49.0,38.0,30.37,NNE,30,23.0,25.0,64,-99.99,,,-99.99,,2013-01-07 17:22:00,
2013-01-07 12:32:00,49.0,38.0,30.37,NNE,30,23.0,25.0,64,-99.99,,,-99.99,,2013-01-07 17:32:00,
2013-01-07 12:42:00,49.0,38.0,30.37,NNE,30,23.0,25.0,64,-99.99,,,-99.99,,2013-01-07 17:42:00,
2013-01-07 12:52:00,49.0,38.0,30.37,NNE,30,23.0,25.0,64,-99.99,,,-99.99,,2013-01-07 17:52:00,
2013-01-07 13:00:00,49.0,39.0,30.37,NNE,20,21.0,25.0,66,-99.99,,,-99.99,,2013-01-07 18:00:00,
2013-01-07 13:22:00,49.0,39.0,30.37,NNE,20,21.0,25.0,66,-99.99,,,-99.99,,2013-01-07 18:22:00,
2013-01-07 13:32:00,49.0,39.0,30.37,NNE,20,21.0,25.0,66,-99.99,,,-99.99,,2013-01-07 18:32:00,
2013-01-07 13:42:00,49.0,39.0,30.37,NNE,20,21.0,25.0,66,-99.99,,,-99.99,,2013-01-07 18:42:00,
2013-01-07 13:52:00,49.0,39.0,30.37,NNE,20,21.0,25.0,66,-99.99,,,-99.99,,2013-01-07 18:52:00,
2013-01-07 14:00:00,50.0,35.0,30.38,NNE,30,22.0,26.0,57,-99.99,,,-99.99,,2013-01-07 19:00:00,
2013-01-07 14:22:00,50.0,35.0,30.38,NNE,30,22.0,26.0,57,-99.99,,,-99.99,,2013-01-07 19:22:00,
2013-01-07 14:32:00,50.0,35.0,30.38,NNE,30,22.0,26.0,57,-99.99,,,-99.99,,2013-01-07 19:32:00,
2013-01-07 14:42:00,50.0,35.0,30.38,NNE,30,22.0,26.0,57,-99.99,,,-99.99,,2013-01-07 19:42:00,
2013-01-07 14:52:00,50.0,35.0,30.38,NNE,30,22.0,26.0,57,-99.99,,,-99.99,,2013-01-07 19:52:00,
2013-01-07 15:00:00,50.0,35.0,30.40,NNE,30,18.0,23.0,57,-99.99,,,-99.99,,2013-01-07 20:00:00,
2013-01-07 15:22:00,50.0,35.0,30.40,NNE,30,18.0,23.0,57,-99.99,,,-99.99,,2013-01-07 20:22:00,
2013-01-07 15:32:00,50.0,35.0,30.40,NNE,30,18.0,23.0,57,-99.99,,,-99.99,,2013-01-07 20:32:00,
2013-01-07 15:42:00,50.0,35.0,30.40,NNE,30,18.0,23.0,57,-99.99,,,-99.99,,2013-01-07 20:42:00,
2013-01-07 15:52:00,50.0,35.0,30.40,NNE,30,18.0,23.0,57,-99.99,,,-99.99,,2013-01-07 20:52:00,
2013-01-07 16:00:00,49.0,33.0,30.42,NNE,30,16.0,20.0,54,-99.99,,,-99.99,,2013-01-07 21:00:00,
2013-01-07 16:22:00,49.0,33.0,30.42,NNE,30,16.0,20.0,54,-99.99,,,-99.99,,2013-01-07 21:22:00,
2013-01-07 16:32:00,49.0,33.0,30.42,NNE,30,16.0,20.0,54,-99.99,,,-99.99,,2013-01-07 21:32:00,
2013-01-07 16:42:00,49.0,33.0,30.42,NNE,30,16.0,20.0,54,-99.99,,,-99.99,,2013-01-07 21:42:00,
2013-01-07 16:52:00,49.0,33.0,30.42,NNE,30,16.0,20.0,54,-99.99,,,-99.99,,2013-01-07 21:52:00,
2013-01-07 17:00:00,49.0,37.0,30.42,NE,40,21.0,23.0,62,-99.99,,,-99.99,,2013-01-07 22:00:00,
2013-01-07 17:22:00,49.0,37.0,30.42,NE,40,21.0,23.0,62,-99.99,,,-99.99,,2013-01-07 22:22:00,
2013-01-07 17:32:00,49.0,37.0,30.42,NE,40,21.0,23.0,62,-99.99,,,-99.99,,2013-01-07 22:32:00,
2013-01-07 17:42:00,49.0,37.0,30.42,NE,40,21.0,23.0,62,-99.99,,,-99.99,,2013-01-07 22:42:00,
2013-01-07 17:52:00,49.0,37.0,30.42,NE,40,21.0,23.0,62,-99.99,,,-99.99,,2013-01-07 22:52:00,
2013-01-07 18:00:00,49.0,37.0,30.43,NE,50,20.0,22.0,62,-99.99,,,-99.99,,2013-01-07 23:00:00,
2013-01-07 18:22:00,49.0,37.0,30.43,NE,50,20.0,22.0,62,-99.99,,,-99.99,,2013-01-07 23:22:00,
2013-01-07 18:32:00,49.0,37.0,30.43,NE,50,20.0,22.0,62,-99.99,,,-99.99,,2013-01-07 23:32:00,
2013-01-07 18:42:00,49.0,37.0,30.43,NE,50,20.0,22.0,62,-99.99,,,-99.99,,2013-01-07 23:42:00,
2013-01-07 18:52:00,49.0,37.0,30.43,NE,50,20.0,22.0,62,-99.99,,,-99.99,,2013-01-07 23:52:00,
2013-01-07 19:00:00,49.0,36.0,30.45,NE,50,20.0,21.0,61,-99.99,,,-99.99,,2013-01-08 00:00:00,
2013-01-07 19:22:00,49.0,36.0,30.45,NE,50,20.0,21.0,61,-99.99,,,-99.99,,2013-01-08 00:22:00,
2013-01-07 19:32:00,49.0,36.0,30.45,NE,50,20.0,21.0,61,-99.99,,,-99.99,,2013-01-08 00:32:00,
2013-01-07 19:42:00,49.0,36.0,30.45,NE,50,20.0,21.0,61,-99.99,,,-99.99,,2013-01-08 00:42:00,
2013-01-07 19:52:00,49.0,36.0,30.45,NE,50,20.0,21.0,61,-99.99,,,-99.99,,2013-01-08 00:52:00,
2013-01-07 20:00:00,49.0,37.0,30.45,NE,40,20.0,24.0,62,-99.99,,,-99.99,,2013-01-08 01:00:00,
2013-01-07 20:22:00,49.0,37.0,30.45,NE,40,20.0,24.0,62,-99.99,,,-99.99,,2013-01-08 01:22:00,
2013-01-07 20:32:00,49.0,37.0,30.45,NE,40,20.0,24.0,62,-99.99,,,-99.99,,2013-01-08 01:32:00,
2013-01-07 20:42:00,49.0,37.0,30.45,NE,40,20.0,24.0,62,-99.99,,,-99.99,,2013-01-08 01:42:00,
2013-01-07 20:52:00,49.0,37.0,30.45,NE,40,20.0,24.0,62,-99.99,,,-99.99,,2013-01-08 01:52:00,
2013-01-07 21:00:00,46.0,39.0,30.45,North,10,11.0,15.0,75,-99.99,,,-99.99,,2013-01-08 02:00:00,
2013-01-07 21:22:00,46.0,39.0,30.45,North,10,11.0,15.0,75,-99.99,,,-99.99,,2013-01-08 02:22:00,
2013-01-07 21:32:00,46.0,39.0,30.45,North,10,11.0,15.0,75,-99.99,,,-99.99,,2013-01-08 02:32:00,
2013-01-07 21:42:00,46.0,39.0,30.45,North,10,11.0,15.0,75,-99.99,,,-99.99,,2013-01-08 02:42:00,
2013-01-07 21:52:00,46.0,39.0,30.45,North,10,11.0,15.0,75,-99.99,,,-99.99,,2013-01-08 02:52:00,
2013-01-07 22:00:00,44.0,38.0,30.44,North,10,10.0,14.0,78,-99.99,,,-99.99,,2013-01-08 03:00:00,
2013-01-07 22:22:00,44.0,38.0,30.44,North,10,10.0,14.0,78,-99.99,,,-99.99,,2013-01-08 03:22:00,
2013-01-07 22:32:00,44.0,38.0,30.44,North,10,10.0,14.0,78,-99.99,,,-99.99,,2013-01-08 03:32:00,
2013-01-07 22:42:00,44.0,38.0,30.44,North,10,10.0,14.0,78,-99.99,,,-99.99,,2013-01-08 03:42:00,
2013-01-07 22:52:00,44.0,38.0,30.44,North,10,10.0,14.0,78,-99.99,,,-99.99,,2013-01-08 03:52:00,
2013-01-07 23:22:00,44.0,38.0,30.43,North,360,11.0,14.0,78,-99.99,,,-99.99,,2013-01-08 04:22:00,
2013-01-07 23:32:00,44.0,38.0,30.43,North,360,11.0,14.0,78,-99.99,,,-99.99,,2013-01-08 04:32:00,
2013-01-07 23:42:00,44.0,38.0,30.43,North,360,11.0,14.0,78,-99.99,,,-99.99,,2013-01-08 04:42:00,
2013-01-07 23:52:00,44.0,38.0,30.43,North,360,11.0,14.0,78,-99.99,,,-99.99,,2013-01-08 04:52:00,